Time;durP1;ratioP1;P1;durP2;ratioP2;P2;SDS_P1;SDS_P2;PMS_P1;PMS_P2;Temp;Humidity;BMP_temperature;BMP_pressure;BME280_temperature;BME280_humidity;BME280_pressure;Samples;Min_cycle;Max_cycle;Signal;HPM_P1;HPM_P2
2022/12/15 00:40:25;;;;;;;40.93;23.27;;;;;;;-1.39;100.00;96979.19;5111259;28;20366;-82
2022/12/15 00:42:51;;;;;;;44.40;24.27;;;;;;;-1.30;100.00;96982.22;5111489;28;20210;-83
2022/12/15 00:45:18;;;;;;;38.77;23.33;;;;;;;-1.32;100.00;96976.28;5111564;28;20258;-83
2022/12/15 00:47:43;;;;;;;41.47;23.07;;;;;;;-1.24;100.00;96969.03;5111493;28;20227;-83
2022/12/15 01:20:19;;;;;;;42.80;23.87;;;;;;;-1.16;100.00;97017.97;5112590;28;20252;-82
2022/12/15 01:22:47;;;;;;;39.33;23.23;;;;;;;-1.15;100.00;97006.69;5115171;28;20220;-84
2022/12/15 01:25:16;;;;;;;38.53;22.83;;;;;;;-1.20;100.00;97014.66;5114743;28;20233;-83
2022/12/15 01:27:42;;;;;;;40.77;22.43;;;;;;;-1.22;100.00;97019.03;5114902;28;20647;-84
2022/12/15 01:30:11;;;;;;;43.90;23.57;;;;;;;-1.27;100.00;97023.59;5114344;28;20208;-83
2022/12/15 01:32:38;;;;;;;39.23;22.93;;;;;;;-1.31;100.00;97023.75;5114650;28;20301;-82
2022/12/15 01:35:05;;;;;;;42.27;22.47;;;;;;;-1.26;100.00;97027.00;5114679;28;20260;-84
2022/12/15 01:37:32;;;;;;;44.17;23.30;;;;;;;-1.21;100.00;97025.94;5114556;28;20212;-82
2022/12/15 01:42:44;;;;;;;45.97;24.07;;;;;;;-1.22;100.00;97031.19;5114671;28;20250;-83
2022/12/15 01:45:47;;;;;;;40.67;23.80;;;;;;;-1.22;100.00;97028.59;5114685;28;20236;-83
2022/12/15 01:48:17;;;;;;;36.33;21.30;;;;;;;-1.30;100.00;97022.88;5114390;28;20235;-83
2022/12/15 01:50:47;;;;;;;40.13;22.37;;;;;;;-1.30;100.00;97028.06;5114061;28;20212;-83
2022/12/15 01:53:14;;;;;;;41.23;23.40;;;;;;;-1.29;100.00;97029.75;5114155;28;20311;-83
2022/12/15 01:55:44;;;;;;;39.17;23.10;;;;;;;-1.29;100.00;97027.16;5114391;28;20233;-83
2022/12/15 01:58:15;;;;;;;42.67;24.33;;;;;;;-1.28;100.00;97029.69;5114075;28;20210;-83
2022/12/15 02:00:42;;;;;;;40.13;22.50;;;;;;;-1.30;100.00;97030.66;5113951;28;20229;-83
2022/12/15 02:03:10;;;;;;;38.53;23.00;;;;;;;-1.32;100.00;97033.28;5113954;28;20206;-82
2022/12/15 02:05:37;;;;;;;37.60;22.50;;;;;;;-1.32;100.00;97040.22;5114119;28;20244;-83
2022/12/15 02:08:04;;;;;;;41.30;23.17;;;;;;;-1.39;100.00;97046.53;5114183;28;20216;-83
2022/12/15 02:10:41;;;;;;;40.17;21.97;;;;;;;-1.42;100.00;97033.72;5113600;28;20271;-83
2022/12/15 02:13:16;;;;;;;43.30;24.27;;;;;;;-1.39;100.00;97029.28;5113939;28;20193;-83
2022/12/15 02:15:49;;;;;;;39.97;22.03;;;;;;;-1.43;100.00;97034.59;5113674;28;20232;-83
2022/12/15 02:18:22;;;;;;;42.00;23.57;;;;;;;-1.45;100.00;97039.88;5113635;28;20668;-83
2022/12/15 02:20:56;;;;;;;38.30;22.13;;;;;;;-1.45;100.00;97041.59;5113409;28;20235;-83
2022/12/15 02:23:56;;;;;;;36.93;21.40;;;;;;;-1.41;100.00;97053.56;5113687;28;20213;-83
2022/12/15 02:26:41;;;;;;;37.67;20.17;;;;;;;-1.44;100.00;97066.59;5113356;28;20230;-84
2022/12/15 02:29:30;;;;;;;43.80;22.50;;;;;;;-1.47;100.00;97066.75;5113505;28;20305;-83
2022/12/15 02:32:03;;;;;;;41.00;22.33;;;;;;;-1.48;100.00;97062.47;5113063;28;20209;-82
2022/12/15 02:34:38;;;;;;;41.80;22.10;;;;;;;-1.39;100.00;97056.91;5113408;28;20208;-82
2022/12/15 02:37:08;;;;;;;41.27;23.47;;;;;;;-1.31;100.00;97054.84;5113606;28;20206;-83
2022/12/15 02:39:35;;;;;;;39.63;21.73;;;;;;;-1.41;100.00;97056.16;5113110;28;20244;-83
2022/12/15 02:42:01;;;;;;;43.10;24.70;;;;;;;-1.38;100.00;97043.03;5113362;28;20205;-83
2022/12/15 02:44:33;;;;;;;37.43;20.53;;;;;;;-1.46;100.00;97045.09;5113334;28;20212;-83
2022/12/15 02:47:14;;;;;;;42.60;24.30;;;;;;;-1.40;100.00;97052.63;5113356;28;20217;-83
2022/12/15 02:49:49;;;;;;;40.53;22.63;;;;;;;-1.41;100.00;97049.19;5112919;28;20287;-83
2022/12/15 02:52:28;;;;;;;40.00;22.67;;;;;;;-1.44;100.00;97058.84;5113291;28;20212;-83
2022/12/15 02:55:09;;;;;;;43.33;22.30;;;;;;;-1.50;100.00;97066.84;5113022;28;20643;-82
2022/12/15 02:57:45;;;;;;;41.77;22.33;;;;;;;-1.49;100.00;97066.78;5112693;28;20196;-83
2022/12/15 03:00:14;;;;;;;42.23;23.70;;;;;;;-1.53;100.00;97060.03;5112408;28;20223;-83
2022/12/15 03:02:46;;;;;;;41.13;21.43;;;;;;;-1.45;100.00;97067.53;5112515;28;20584;-83
2022/12/15 03:05:14;;;;;;;44.13;23.20;;;;;;;-1.51;100.00;97068.63;5112593;28;20254;-83
2022/12/15 03:07:41;;;;;;;44.80;23.87;;;;;;;-1.53;100.00;97064.38;5112517;28;20568;-82
2022/12/15 03:10:10;;;;;;;41.87;21.93;;;;;;;-1.51;100.00;97070.34;5112006;28;20211;-83
2022/12/15 03:12:36;;;;;;;41.90;23.43;;;;;;;-1.47;100.00;97079.69;5112696;28;20223;-83
2022/12/15 03:15:04;;;;;;;47.13;24.83;;;;;;;-1.42;100.00;97072.59;5112247;28;20277;-83
2022/12/15 03:17:30;;;;;;;44.63;23.23;;;;;;;-1.49;100.00;97069.38;5113020;28;20212;-84
2022/12/15 03:19:58;;;;;;;38.20;20.63;;;;;;;-1.55;100.00;97066.19;5112342;28;20703;-84
2022/12/15 03:22:25;;;;;;;37.37;21.00;;;;;;;-1.55;100.00;97063.59;5112459;28;20680;-83
2022/12/15 03:24:51;;;;;;;36.23;20.00;;;;;;;-1.56;100.00;97074.84;5112736;28;20237;-83
2022/12/15 03:27:18;;;;;;;42.20;21.47;;;;;;;-1.60;100.00;97070.72;5112532;28;20215;-83
2022/12/15 03:29:44;;;;;;;41.63;22.90;;;;;;;-1.59;100.00;97085.34;5112141;28;20209;-83
2022/12/15 03:32:11;;;;;;;38.70;22.23;;;;;;;-1.58;100.00;97087.03;5112349;28;20203;-83
2022/12/15 03:34:37;;;;;;;38.70;19.87;;;;;;;-1.58;100.00;97092.22;5112069;28;20685;-83
2022/12/15 03:37:05;;;;;;;42.27;22.17;;;;;;;-1.59;100.00;97090.53;5112565;28;20232;-83
2022/12/15 03:39:32;;;;;;;36.23;21.47;;;;;;;-1.58;100.00;97085.31;5111828;28;20325;-83
2022/12/15 03:41:58;;;;;;;37.90;20.37;;;;;;;-1.55;100.00;97087.75;5112211;28;20204;-83
2022/12/15 03:44:25;;;;;;;40.07;22.17;;;;;;;-1.56;100.00;97109.38;5112052;28;20207;-83
2022/12/15 03:46:51;;;;;;;40.40;22.13;;;;;;;-1.55;100.00;97092.09;5112106;28;20223;-83
2022/12/15 03:49:18;;;;;;;35.97;20.47;;;;;;;-1.55;100.00;97092.09;5112019;28;20209;-83
2022/12/15 03:51:44;;;;;;;37.70;20.90;;;;;;;-1.58;100.00;97100.84;5112210;28;20224;-83
2022/12/15 03:54:13;;;;;;;37.07;20.80;;;;;;;-1.59;100.00;97098.31;5112575;28;20206;-83
2022/12/15 03:56:40;;;;;;;37.00;20.90;;;;;;;-1.59;100.00;97100.91;5112048;28;20226;-83
2022/12/15 03:59:06;;;;;;;36.23;21.20;;;;;;;-1.59;100.00;97111.25;5111789;28;20209;-83
2022/12/15 04:01:35;;;;;;;35.40;19.90;;;;;;;-1.59;100.00;97122.44;5111881;28;20229;-83
2022/12/15 04:04:02;;;;;;;38.43;21.33;;;;;;;-1.61;100.00;97129.44;5112084;28;20209;-84
2022/12/15 04:06:30;;;;;;;43.60;24.43;;;;;;;-1.64;100.00;97129.56;5111895;28;20227;-83
2022/12/15 04:08:57;;;;;;;38.97;21.80;;;;;;;-1.61;100.00;97128.59;5111845;28;20237;-85
2022/12/15 04:11:24;;;;;;;47.03;24.53;;;;;;;-1.60;100.00;97125.13;5111836;28;20216;-83
2022/12/15 04:13:51;;;;;;;40.53;22.23;;;;;;;-1.56;100.00;97126.66;5111919;28;20213;-83
2022/12/15 04:16:17;;;;;;;42.03;22.63;;;;;;;-1.57;100.00;97119.81;5111698;28;20260;-83
2022/12/15 04:18:44;;;;;;;39.63;20.97;;;;;;;-1.55;100.00;97128.34;5111773;28;20209;-83
2022/12/15 04:21:09;;;;;;;38.07;20.67;;;;;;;-1.57;100.00;97130.16;5112187;28;20230;-83
2022/12/15 04:23:36;;;;;;;43.67;23.67;;;;;;;-1.60;100.00;97151.00;5111791;28;20213;-83
2022/12/15 05:32:00;;;;;;;41.50;21.50;;;;;;;-1.55;100.00;97149.94;5114486;28;20288;-76
2022/12/15 05:34:30;;;;;;;37.93;20.17;;;;;;;-1.57;100.00;97156.06;5114462;28;20213;-76
2022/12/15 05:36:58;;;;;;;38.20;20.03;;;;;;;-1.54;100.00;97148.19;5114338;28;20228;-76
2022/12/15 05:39:25;;;;;;;35.33;20.63;;;;;;;-1.53;100.00;97158.47;5113884;28;20210;-76
2022/12/15 05:41:53;;;;;;;43.87;22.90;;;;;;;-1.58;100.00;97151.78;5114180;28;20206;-76
2022/12/15 05:44:20;;;;;;;40.47;21.97;;;;;;;-1.55;100.00;97143.88;5114104;28;20572;-76
2022/12/15 05:46:47;;;;;;;38.03;20.43;;;;;;;-1.52;100.00;97143.78;5114166;28;20690;-77
2022/12/15 05:49:15;;;;;;;40.63;20.97;;;;;;;-1.52;100.00;97134.28;5113689;28;20206;-77
2022/12/15 05:51:45;;;;;;;41.73;21.33;;;;;;;-1.52;100.00;97139.47;5114288;28;20206;-75
2022/12/15 05:54:15;;;;;;;41.70;21.50;;;;;;;-1.56;100.00;97147.38;5116440;28;20204;-75
2022/12/15 05:56:41;;;;;;;37.20;20.83;;;;;;;-1.53;100.00;97147.28;5114066;28;20274;-76
2022/12/15 05:59:08;;;;;;;38.23;19.90;;;;;;;-1.53;100.00;97152.47;5113951;28;20213;-76
2022/12/15 06:01:35;;;;;;;41.27;19.53;;;;;;;-1.56;100.00;97152.56;5114073;28;20601;-76
2022/12/15 06:04:01;;;;;;;34.40;19.47;;;;;;;-1.56;100.00;97162.94;5114096;28;20208;-76
2022/12/15 06:06:28;;;;;;;41.03;21.80;;;;;;;-1.59;100.00;97155.28;5113057;28;20234;-76
2022/12/15 06:08:56;;;;;;;39.67;21.47;;;;;;;-1.62;100.00;97156.25;5113413;28;20212;-76
2022/12/15 06:11:23;;;;;;;40.83;21.40;;;;;;;-1.60;100.00;97151.84;5113773;28;20221;-76
2022/12/15 06:13:49;;;;;;;35.57;19.97;;;;;;;-1.63;100.00;97156.28;5113724;28;20213;-76
2022/12/15 06:16:17;;;;;;;34.83;17.93;;;;;;;-1.67;100.00;97159.91;5113318;28;20774;-76
2022/12/15 06:18:45;;;;;;;35.63;21.13;;;;;;;-1.74;100.00;97173.97;5113350;28;20543;-77
2022/12/15 06:21:14;;;;;;;40.23;20.70;;;;;;;-1.74;100.00;97173.97;5113118;28;20700;-76
2022/12/15 06:23:41;;;;;;;38.90;20.77;;;;;;;-1.75;100.00;97167.09;5113309;28;20300;-77
2022/12/15 06:26:11;;;;;;;44.37;22.70;;;;;;;-1.73;100.00;97173.09;5113533;28;20229;-76
2022/12/15 06:28:38;;;;;;;42.47;22.07;;;;;;;-1.70;100.00;97175.56;5113334;28;20213;-76
2022/12/15 06:31:07;;;;;;;41.87;22.67;;;;;;;-1.72;100.00;97167.84;5112943;28;20216;-76
2022/12/15 06:33:34;;;;;;;41.17;22.33;;;;;;;-1.64;100.00;97170.16;5113104;28;20212;-77
2022/12/15 06:36:03;;;;;;;42.77;23.37;;;;;;;-1.63;100.00;97182.19;5113042;28;20231;-76
2022/12/15 06:38:30;;;;;;;39.60;22.57;;;;;;;-1.59;100.00;97196.72;5113018;28;20202;-76
2022/12/15 06:40:57;;;;;;;44.00;22.67;;;;;;;-1.52;100.00;97188.69;5112888;28;20229;-76
2022/12/15 06:43:25;;;;;;;42.77;22.17;;;;;;;-1.42;100.00;97168.47;5113209;28;20558;-76
2022/12/15 06:45:51;;;;;;;44.70;23.10;;;;;;;-1.46;100.00;97185.88;5112970;28;20234;-76
2022/12/15 06:48:18;;;;;;;48.67;24.33;;;;;;;-1.55;100.00;97164.63;5113383;28;20208;-76
2022/12/15 06:50:45;;;;;;;42.80;21.20;;;;;;;-1.53;100.00;97168.84;5112507;28;20202;-76
2022/12/15 06:53:12;;;;;;;38.80;20.23;;;;;;;-1.59;100.00;97165.66;5113100;28;20341;-76
2022/12/15 06:55:39;;;;;;;36.13;19.73;;;;;;;-1.56;100.00;97168.13;5112892;28;20232;-76
2022/12/15 06:58:05;;;;;;;37.47;22.43;;;;;;;-1.52;100.00;97162.78;5112825;28;20215;-76
2022/12/15 07:00:36;;;;;;;46.10;23.90;;;;;;;-1.57;100.00;97179.38;5112347;28;20233;-76
2022/12/15 07:03:02;;;;;;;46.67;22.90;;;;;;;-1.55;100.00;97175.84;5112711;28;20212;-74
2022/12/15 07:05:29;;;;;;;40.33;21.60;;;;;;;-1.54;100.00;97161.16;5112423;28;20234;-74
2022/12/15 07:07:56;;;;;;;39.03;21.40;;;;;;;-1.51;100.00;97163.63;5112673;28;20208;-77
2022/12/15 07:10:22;;;;;;;39.27;21.70;;;;;;;-1.41;100.00;97167.56;5112332;28;20208;-74
2022/12/15 07:12:49;;;;;;;40.33;20.90;;;;;;;-1.47;100.00;97158.25;5112435;28;20597;-76
2022/12/15 07:15:15;;;;;;;38.70;21.33;;;;;;;-1.47;100.00;97160.00;5112322;28;20231;-76
2022/12/15 07:17:43;;;;;;;43.33;21.47;;;;;;;-1.55;100.00;97169.78;5111370;28;20206;-75
2022/12/15 07:20:11;;;;;;;31.93;17.73;;;;;;;-1.54;100.00;97166.34;5111812;28;20228;-76
2022/12/15 07:22:37;;;;;;;40.63;19.80;;;;;;;-1.52;100.00;97172.28;5112474;28;20223;-76
2022/12/15 07:25:05;;;;;;;38.70;21.10;;;;;;;-1.48;100.00;97166.94;5111955;28;20698;-76
2022/12/15 07:27:31;;;;;;;38.70;20.53;;;;;;;-1.49;100.00;97179.94;5112253;28;20213;-76
2022/12/15 07:29:58;;;;;;;35.87;19.30;;;;;;;-1.53;100.00;97191.31;5111741;28;20215;-76
2022/12/15 07:32:24;;;;;;;36.00;19.90;;;;;;;-1.54;100.00;97182.69;5111872;28;20204;-76
2022/12/15 07:34:52;;;;;;;44.73;21.63;;;;;;;-1.56;100.00;97184.50;5111914;28;20219;-76
2022/12/15 07:37:18;;;;;;;38.87;20.17;;;;;;;-1.53;100.00;97188.75;5112312;28;20208;-76
2022/12/15 07:39:45;;;;;;;44.07;22.30;;;;;;;-1.44;100.00;97196.16;5111664;28;20209;-76
2022/12/15 07:42:11;;;;;;;45.00;22.63;;;;;;;-1.39;100.00;97191.66;5111960;28;20255;-76
2022/12/15 07:44:38;;;;;;;40.27;20.27;;;;;;;-1.37;100.00;97195.03;5111848;28;20213;-77
2022/12/15 07:47:05;;;;;;;43.60;22.37;;;;;;;-1.32;100.00;97190.53;5111678;28;20256;-76
2022/12/15 07:49:31;;;;;;;36.83;20.40;;;;;;;-1.35;100.00;97190.66;5111753;28;20241;-76
2022/12/15 07:51:59;;;;;;;42.10;22.87;;;;;;;-1.38;100.00;97180.38;5111983;28;20212;-77
2022/12/15 07:54:26;;;;;;;40.07;20.13;;;;;;;-1.27;100.00;97179.09;5112011;28;20567;-77
2022/12/15 07:56:52;;;;;;;41.07;21.27;;;;;;;-1.21;100.00;97188.38;5111871;28;20255;-77
2022/12/15 07:59:19;;;;;;;39.00;19.60;;;;;;;-1.22;100.00;97189.28;5111615;28;20209;-77
2022/12/15 08:01:46;;;;;;;41.53;21.60;;;;;;;-1.18;100.00;97190.88;5111573;28;20354;-77
2022/12/15 08:04:15;;;;;;;41.63;20.53;;;;;;;-1.15;100.00;97195.91;5111720;28;20240;-77
2022/12/15 08:06:42;;;;;;;39.17;20.37;;;;;;;-1.14;100.00;97195.00;5114954;28;20286;-76
2022/12/15 08:09:09;;;;;;;39.80;20.37;;;;;;;-1.15;100.00;97206.28;5112022;28;20703;-76
2022/12/15 08:11:37;;;;;;;37.70;21.20;;;;;;;-1.11;100.00;97202.69;5112374;28;20231;-76
2022/12/15 08:14:04;;;;;;;40.17;20.23;;;;;;;-1.12;100.00;97212.19;5111540;28;20700;-75
2022/12/15 08:16:33;;;;;;;38.97;20.33;;;;;;;-1.08;100.00;97218.09;5111200;28;20239;-77
2022/12/15 08:18:59;;;;;;;40.13;19.60;;;;;;;-1.04;100.00;97225.69;5111422;28;20314;-77
2022/12/15 08:21:26;;;;;;;34.60;19.43;;;;;;;-0.95;100.00;97234.88;5111482;28;20236;-77
2022/12/15 08:23:52;;;;;;;41.60;20.27;;;;;;;-0.97;100.00;97239.28;5111537;28;20206;-77
2022/12/15 08:26:20;;;;;;;39.37;18.67;;;;;;;-0.94;100.00;97239.16;5111470;28;20720;-77
2022/12/15 08:28:47;;;;;;;37.33;20.17;;;;;;;-0.92;100.00;97239.97;5112055;28;20216;-77
2022/12/15 08:31:15;;;;;;;37.67;19.00;;;;;;;-0.90;100.00;97243.34;5115752;28;20202;-77
2022/12/15 08:33:43;;;;;;;30.60;16.77;;;;;;;-0.89;100.00;97242.44;5115665;28;20213;-77
2022/12/15 08:36:12;;;;;;;37.20;19.93;;;;;;;-0.83;100.00;97237.00;5115643;28;20256;-77
2022/12/15 08:38:40;;;;;;;34.37;19.10;;;;;;;-0.81;100.00;97230.03;5115497;28;20209;-76
2022/12/15 08:41:08;;;;;;;40.10;18.83;;;;;;;-0.80;100.00;97229.13;5115087;28;20226;-77
2022/12/15 08:43:39;;;;;;;32.50;18.13;;;;;;;-0.76;100.00;97223.75;5115246;28;20748;-77
2022/12/15 08:46:06;;;;;;;37.43;19.47;;;;;;;-0.75;100.00;97229.78;5115221;28;20750;-77
2022/12/15 08:48:34;;;;;;;36.63;19.33;;;;;;;-0.70;100.00;97220.91;5115506;28;20208;-77
2022/12/15 08:51:01;;;;;;;31.70;18.27;;;;;;;-0.67;100.00;97222.53;5115034;28;20212;-77
2022/12/15 08:53:28;;;;;;;36.73;18.73;;;;;;;-0.67;100.00;97227.72;5115205;28;20220;-77
2022/12/15 08:55:54;;;;;;;37.73;19.50;;;;;;;-0.57;100.00;97227.28;5115091;28;20245;-77
2022/12/15 08:58:21;;;;;;;35.40;18.93;;;;;;;-0.54;100.00;97231.53;5115536;28;20587;-77
2022/12/15 09:00:49;;;;;;;37.00;19.00;;;;;;;-0.51;100.00;97237.44;5114648;28;20232;-76
2022/12/15 09:03:15;;;;;;;37.00;19.60;;;;;;;-0.46;100.00;97234.66;5115214;28;20202;-78
2022/12/15 09:05:42;;;;;;;32.97;17.23;;;;;;;-0.40;100.00;97239.59;5114922;28;20731;-77
2022/12/15 09:08:08;;;;;;;36.72;19.63;;;;;;;-0.34;100.00;97239.34;5114812;28;20438;-78
2022/12/15 09:10:35;;;;;;;35.03;19.07;;;;;;;-0.28;100.00;97234.75;5113701;28;20209;-79
2022/12/15 09:13:01;;;;;;;34.43;19.30;;;;;;;-0.28;100.00;97224.38;5114022;28;20243;-79
2022/12/15 09:15:28;;;;;;;34.20;18.17;;;;;;;-0.29;100.00;97217.50;5114845;28;20708;-77
2022/12/15 09:17:57;;;;;;;34.83;18.50;;;;;;;-0.26;100.00;97208.75;5114740;28;20213;-77
2022/12/15 09:20:23;;;;;;;37.87;18.97;;;;;;;-0.28;100.00;97214.81;5115781;28;20206;-76
2022/12/15 09:22:50;;;;;;;35.03;18.23;;;;;;;-0.18;100.00;97219.66;5115492;28;20286;-76
2022/12/15 09:25:16;;;;;;;36.90;19.63;;;;;;;-0.11;100.00;97212.38;5114858;28;20226;-77
2022/12/15 09:27:43;;;;;;;36.97;20.27;;;;;;;-0.08;100.00;97211.41;5115144;28;20209;-77
2022/12/15 09:30:10;;;;;;;38.33;20.60;;;;;;;-0.08;100.00;97199.28;5115422;28;20221;-77
2022/12/15 09:32:37;;;;;;;34.63;17.70;;;;;;;-0.12;100.00;97197.72;5114664;28;20202;-77
2022/12/15 09:35:05;;;;;;;39.17;20.90;;;;;;;-0.09;100.00;97191.53;5114465;28;20685;-77
2022/12/15 09:37:32;;;;;;;34.20;20.20;;;;;;;-0.14;100.00;97192.66;5114409;28;20220;-77
2022/12/15 09:39:59;;;;;;;30.87;18.17;;;;;;;-0.18;100.00;97185.91;5113594;28;20209;-77
2022/12/15 09:42:28;;;;;;;32.83;19.30;;;;;;;-0.19;100.00;97192.00;5113698;28;20729;-78
2022/12/15 09:45:03;;;;;;;36.07;18.77;;;;;;;-0.17;100.00;97191.84;5114257;28;20213;-78
2022/12/15 09:47:39;;;;;;;37.17;18.83;;;;;;;-0.13;100.00;97197.75;5114309;28;20298;-77
2022/12/15 09:50:11;;;;;;;34.70;20.17;;;;;;;-0.06;100.00;97200.03;5113891;28;20212;-78
2022/12/15 09:52:48;;;;;;;33.70;19.03;;;;;;;-0.03;100.00;97199.94;5114104;28;20212;-77
2022/12/15 09:55:21;;;;;;;35.10;19.53;;;;;;;0.01;100.00;97206.66;5113956;28;20243;-76
2022/12/15 09:57:53;;;;;;;37.40;20.37;;;;;;;0.06;100.00;97204.72;5114069;28;20592;-75
2022/12/15 10:00:24;;;;;;;34.30;19.43;;;;;;;0.08;100.00;97187.31;5113515;28;20210;-76
2022/12/15 10:03:24;;;;;;;29.50;16.97;;;;;;;0.06;100.00;97191.72;5114031;28;20233;-76
2022/12/15 10:06:04;;;;;;;31.20;17.83;;;;;;;0.03;100.00;97204.88;5111279;28;20236;-76
2022/12/15 10:08:34;;;;;;;33.43;17.37;;;;;;;0.11;100.00;97214.91;5113873;28;20224;-76
2022/12/15 10:11:04;;;;;;;33.27;19.33;;;;;;;0.15;100.00;97204.34;5113431;28;20695;-77
2022/12/15 10:13:41;;;;;;;35.50;19.80;;;;;;;0.10;100.00;97201.09;5113563;28;20212;-77
2022/12/15 10:16:18;;;;;;;34.00;18.90;;;;;;;0.08;100.00;97202.88;5113545;28;20234;-76
2022/12/15 10:18:53;;;;;;;32.03;17.80;;;;;;;0.07;100.00;97211.59;5122738;28;20204;-76
2022/12/15 10:21:24;;;;;;;33.53;19.00;;;;;;;0.14;100.00;97213.03;5115577;28;20237;-76
2022/12/15 10:23:52;;;;;;;35.17;18.43;;;;;;;0.11;100.00;97218.38;5113961;28;20232;-75
2022/12/15 10:26:22;;;;;;;37.60;19.10;;;;;;;0.17;100.00;97212.03;5113489;28;20226;-76
2022/12/15 10:29:06;;;;;;;35.63;19.77;;;;;;;0.18;100.00;97203.34;5113107;28;20270;-75
2022/12/15 10:31:41;;;;;;;35.80;20.30;;;;;;;0.14;100.00;97197.44;5113116;28;20209;-76
2022/12/15 10:34:11;;;;;;;36.40;20.50;;;;;;;0.12;100.00;97199.25;5113460;28;20258;-76
2022/12/15 10:36:49;;;;;;;33.57;18.70;;;;;;;0.08;100.00;97186.47;5113037;28;20253;-76
2022/12/15 10:39:15;;;;;;;37.17;19.87;;;;;;;0.13;100.00;97174.97;5112804;28;20204;-76
2022/12/15 10:41:43;;;;;;;29.93;18.17;;;;;;;0.14;100.00;97168.84;5112917;28;20229;-76
2022/12/15 10:44:23;;;;;;;35.17;19.53;;;;;;;0.14;100.00;97168.84;5113369;28;20657;-77
2022/12/15 10:46:55;;;;;;;35.27;18.83;;;;;;;0.18;100.00;97152.25;5112985;28;20222;-76
2022/12/15 10:49:23;;;;;;;34.63;18.73;;;;;;;0.19;100.00;97138.34;5112765;28;20214;-78
2022/12/15 10:51:56;;;;;;;32.67;19.03;;;;;;;0.19;100.00;97132.31;5112627;28;20204;-78
2022/12/15 10:54:24;;;;;;;34.17;19.23;;;;;;;0.18;100.00;97136.66;5112799;28;20759;-78
2022/12/15 10:56:53;;;;;;;36.30;19.67;;;;;;;0.15;100.00;97130.75;5112617;28;20230;-77
2022/12/15 10:59:25;;;;;;;33.33;18.13;;;;;;;0.02;100.00;97125.22;5112724;28;20205;-78
2022/12/15 11:01:52;;;;;;;34.23;19.00;;;;;;;-0.03;100.00;97137.59;5112771;28;20230;-77
2022/12/15 11:04:26;;;;;;;29.63;18.90;;;;;;;-0.06;100.00;97136.91;5112459;28;20286;-76
2022/12/15 11:06:58;;;;;;;33.37;18.57;;;;;;;-0.09;100.00;97137.00;5112027;28;20320;-76
2022/12/15 11:09:32;;;;;;;32.73;19.37;;;;;;;-0.06;100.00;97137.72;5112078;28;20209;-77
2022/12/15 11:14:44;;;;;;;34.10;18.90;;;;;;;-0.12;100.00;97132.78;5112489;28;20328;-76
2022/12/15 11:17:15;;;;;;;33.13;18.03;;;;;;;-0.17;100.00;97138.25;5112103;28;20241;-76
2022/12/15 11:19:50;;;;;;;34.80;19.43;;;;;;;-0.18;100.00;97146.94;5111903;28;20213;-76
2022/12/15 11:22:27;;;;;;;33.73;18.47;;;;;;;-0.02;100.00;97147.06;5112169;28;20225;-76
2022/12/15 11:24:59;;;;;;;31.33;17.87;;;;;;;0.05;100.00;97145.03;5111913;28;20225;-76
2022/12/15 11:27:30;;;;;;;31.97;19.10;;;;;;;0.17;100.00;97132.38;5111963;28;20588;-76
2022/12/15 11:30:01;;;;;;;34.27;19.67;;;;;;;0.23;100.00;97134.69;5111763;28;20210;-76
2022/12/15 11:32:32;;;;;;;32.17;18.53;;;;;;;0.21;100.00;97115.75;5112102;28;20688;-76
2022/12/15 11:34:59;;;;;;;34.63;19.40;;;;;;;0.21;100.00;97114.88;5111898;28;20232;-76
2022/12/15 11:37:46;;;;;;;33.57;19.87;;;;;;;0.23;100.00;97119.13;5111868;28;20215;-76
2022/12/15 11:40:29;;;;;;;34.50;19.10;;;;;;;0.23;100.00;97118.25;5111565;28;20210;-76
2022/12/15 11:43:09;;;;;;;33.47;19.30;;;;;;;0.33;100.00;97117.75;5111634;28;20225;-76
2022/12/15 11:45:44;;;;;;;28.90;17.30;;;;;;;0.26;100.00;97113.75;5111920;28;20353;-77
2022/12/15 11:48:16;;;;;;;32.03;17.73;;;;;;;0.20;100.00;97108.84;5111861;28;20212;-76
2022/12/15 11:50:52;;;;;;;32.63;17.63;;;;;;;0.29;100.00;97123.19;5111488;28;20214;-76
2022/12/15 11:53:33;;;;;;;31.17;18.27;;;;;;;0.42;100.00;97116.50;5111881;28;20213;-76
2022/12/15 11:56:11;;;;;;;31.00;18.73;;;;;;;0.43;100.00;97111.25;5111791;28;20633;-76
2022/12/15 11:58:56;;;;;;;36.47;18.83;;;;;;;0.47;100.00;97102.41;5111698;28;20579;-76
2022/12/15 12:01:41;;;;;;;32.85;19.83;;;;;;;0.50;100.00;97091.84;5111506;28;20427;-78
2022/12/15 12:04:18;;;;;;;30.97;18.27;;;;;;;0.50;100.00;97091.03;5111094;28;20209;-77
2022/12/15 12:06:53;;;;;;;29.90;17.73;;;;;;;0.52;100.00;97086.59;5110639;28;20232;-77
2022/12/15 12:09:29;;;;;;;33.40;18.57;;;;;;;0.56;100.00;97080.34;5111131;28;20665;-76
2022/12/15 12:12:03;;;;;;;30.97;17.57;;;;;;;0.59;100.00;97068.06;5110901;28;20213;-76
2022/12/15 12:14:42;;;;;;;28.27;16.47;;;;;;;0.57;100.00;97062.06;5110886;28;20338;-77
2022/12/15 12:17:21;;;;;;;31.00;17.33;;;;;;;0.61;100.00;97057.59;5110863;28;20246;-76
2022/12/15 12:19:51;;;;;;;30.63;17.47;;;;;;;0.56;100.00;97044.78;5111083;28;20209;-78
2022/12/15 12:22:24;;;;;;;32.87;17.93;;;;;;;0.57;100.00;97041.25;5111421;28;20233;-78
2022/12/15 12:24:57;;;;;;;27.40;16.00;;;;;;;0.58;100.00;97022.19;5111452;28;20579;-77
2022/12/15 12:27:33;;;;;;;30.27;16.60;;;;;;;0.56;100.00;97029.19;5111512;28;20206;-77
2022/12/15 12:30:04;;;;;;;30.93;17.63;;;;;;;0.58;100.00;97022.19;5111280;28;20197;-77
2022/12/15 12:32:40;;;;;;;29.77;18.37;;;;;;;0.65;100.00;97013.16;5111344;28;20365;-77
2022/12/15 12:35:14;;;;;;;30.23;17.83;;;;;;;0.69;100.00;97014.69;5111357;28;20205;-77
2022/12/15 12:37:44;;;;;;;28.40;16.80;;;;;;;0.69;100.00;97027.69;5111482;28;20217;-76
2022/12/15 12:40:20;;;;;;;28.00;16.50;;;;;;;0.72;100.00;97024.94;5110836;28;20209;-76
2022/12/15 12:42:53;;;;;;;33.20;18.00;;;;;;;0.67;100.00;97019.13;5111138;28;20254;-76
2022/12/15 12:45:22;;;;;;;34.07;19.40;;;;;;;0.75;100.00;97017.00;5111335;28;20232;-76
2022/12/15 12:47:52;;;;;;;30.50;16.27;;;;;;;0.71;100.00;97018.06;5111306;28;20220;-77
2022/12/15 12:50:22;;;;;;;28.93;17.40;;;;;;;0.78;100.00;97014.25;5110846;28;20216;-77
2022/12/15 12:52:51;;;;;;;28.83;17.57;;;;;;;0.78;100.00;97003.00;5111198;28;20582;-76
2022/12/15 12:55:38;;;;;;;30.67;17.50;;;;;;;0.77;100.00;97009.97;5110830;28;20234;-76
2022/12/15 12:58:32;;;;;;;31.93;18.53;;;;;;;0.82;100.00;97010.59;5111278;28;20213;-76
2022/12/15 13:01:19;;;;;;;28.77;16.93;;;;;;;0.85;100.00;97002.63;5110599;28;20333;-77
2022/12/15 13:03:47;;;;;;;28.97;17.17;;;;;;;0.89;100.00;97009.38;5110893;28;20274;-76
2022/12/15 13:06:22;;;;;;;33.13;18.90;;;;;;;0.91;100.00;96999.75;5109112;28;20230;-79
2022/12/15 13:08:51;;;;;;;27.93;15.83;;;;;;;0.89;100.00;97005.94;5110777;28;20202;-76
2022/12/15 13:11:54;;;;;;;33.07;17.43;;;;;;;0.87;100.00;97003.41;5110819;28;20210;-77
2022/12/15 13:14:41;;;;;;;31.40;17.50;;;;;;;0.88;100.00;97002.50;5110340;28;20217;-77
2022/12/15 13:17:16;;;;;;;30.40;17.50;;;;;;;0.89;100.00;96992.94;5114513;28;20764;-77
2022/12/15 13:20:19;;;;;;;35.73;17.63;;;;;;;0.86;100.00;96986.09;5114291;28;20224;-77
2022/12/15 13:22:46;;;;;;;32.70;18.03;;;;;;;0.90;100.00;96989.41;5114230;28;20278;-77
2022/12/15 13:25:43;;;;;;;34.03;16.63;;;;;;;0.83;100.00;96983.69;5114582;28;20639;-77
2022/12/15 13:28:26;;;;;;;31.47;16.57;;;;;;;0.84;100.00;96981.91;5051371;28;20228;-77
2022/12/15 13:31:27;;;;;;;31.30;17.70;;;;;;;0.88;100.00;96971.28;5106618;28;20319;-78
2022/12/15 13:34:13;;;;;;;29.93;16.63;;;;;;;0.88;100.00;96960.91;5114450;28;20206;-78
2022/12/15 13:36:45;;;;;;;29.57;16.37;;;;;;;0.82;100.00;96958.59;5114281;28;20230;-78
2022/12/15 13:39:33;;;;;;;33.43;17.77;;;;;;;0.82;100.00;96958.59;5096191;28;20202;-78
2022/12/15 13:42:41;;;;;;;31.37;16.67;;;;;;;0.78;100.00;96951.84;5111205;28;20287;-75
2022/12/15 13:45:28;;;;;;;34.33;18.17;;;;;;;0.78;100.00;96945.78;5110504;28;20316;-76
2022/12/15 13:47:56;;;;;;;30.17;16.73;;;;;;;0.71;100.00;96947.88;5111578;28;20202;-76
2022/12/15 13:50:41;;;;;;;31.60;17.70;;;;;;;0.72;100.00;96957.34;5111728;28;20206;-76